sensor_id;sensor_type;location;lat;lon;timestamp;temperature;humidity
64888;DHT22;51386;53.082;8.816;2023-02-20T00:01:02;9.10;76.40
64888;DHT22;51386;53.082;8.816;2023-02-20T00:03:30;9.10;76.40
64888;DHT22;51386;53.082;8.816;2023-02-20T00:05:58;9.20;76.40
64888;DHT22;51386;53.082;8.816;2023-02-20T00:08:25;9.10;76.20
64888;DHT22;51386;53.082;8.816;2023-02-20T00:10:52;9.10;76.10
64888;DHT22;51386;53.082;8.816;2023-02-20T00:13:19;9.20;76.10
64888;DHT22;51386;53.082;8.816;2023-02-20T00:15:46;9.20;76.10
64888;DHT22;51386;53.082;8.816;2023-02-20T00:18:14;9.20;76.10
64888;DHT22;51386;53.082;8.816;2023-02-20T00:20:41;9.20;76.10
64888;DHT22;51386;53.082;8.816;2023-02-20T00:23:08;9.20;76.00
64888;DHT22;51386;53.082;8.816;2023-02-20T00:25:35;9.10;76.00
64888;DHT22;51386;53.082;8.816;2023-02-20T00:28:03;9.20;75.90
64888;DHT22;51386;53.082;8.816;2023-02-20T00:30:30;9.20;75.90
64888;DHT22;51386;53.082;8.816;2023-02-20T00:32:58;9.20;75.90
64888;DHT22;51386;53.082;8.816;2023-02-20T00:35:27;9.20;75.90
64888;DHT22;51386;53.082;8.816;2023-02-20T00:37:55;9.20;75.90
64888;DHT22;51386;53.082;8.816;2023-02-20T00:40:24;9.20;76.10
64888;DHT22;51386;53.082;8.816;2023-02-20T00:42:51;9.20;76.00
64888;DHT22;51386;53.082;8.816;2023-02-20T00:45:19;9.20;76.10
64888;DHT22;51386;53.082;8.816;2023-02-20T00:47:46;9.20;76.10
64888;DHT22;51386;53.082;8.816;2023-02-20T00:50:15;9.20;76.10
64888;DHT22;51386;53.082;8.816;2023-02-20T00:52:45;9.20;76.10
64888;DHT22;51386;53.082;8.816;2023-02-20T00:55:12;9.20;76.10
64888;DHT22;51386;53.082;8.816;2023-02-20T00:57:39;9.20;76.20
64888;DHT22;51386;53.082;8.816;2023-02-20T01:00:14;9.20;76.40
64888;DHT22;51386;53.082;8.816;2023-02-20T01:02:44;9.20;76.60
64888;DHT22;51386;53.082;8.816;2023-02-20T01:05:11;9.20;76.50
64888;DHT22;51386;53.082;8.816;2023-02-20T01:07:38;9.20;76.70
64888;DHT22;51386;53.082;8.816;2023-02-20T01:10:07;9.20;76.80
64888;DHT22;51386;53.082;8.816;2023-02-20T01:12:34;9.20;76.90
64888;DHT22;51386;53.082;8.816;2023-02-20T01:15:01;9.20;76.90
64888;DHT22;51386;53.082;8.816;2023-02-20T01:17:29;9.20;77.10
64888;DHT22;51386;53.082;8.816;2023-02-20T01:19:56;9.20;77.00
64888;DHT22;51386;53.082;8.816;2023-02-20T01:22:23;9.20;76.90
64888;DHT22;51386;53.082;8.816;2023-02-20T01:24:50;9.30;76.90
64888;DHT22;51386;53.082;8.816;2023-02-20T01:27:19;9.30;76.80
64888;DHT22;51386;53.082;8.816;2023-02-20T01:29:46;9.30;76.80
64888;DHT22;51386;53.082;8.816;2023-02-20T01:32:13;9.30;76.90
64888;DHT22;51386;53.082;8.816;2023-02-20T01:34:40;9.30;76.80
64888;DHT22;51386;53.082;8.816;2023-02-20T01:37:11;9.30;76.80
64888;DHT22;51386;53.082;8.816;2023-02-20T01:39:40;9.40;76.90
64888;DHT22;51386;53.082;8.816;2023-02-20T01:42:11;9.40;77.00
64888;DHT22;51386;53.082;8.816;2023-02-20T01:44:44;9.30;77.00
64888;DHT22;51386;53.082;8.816;2023-02-20T01:47:15;9.30;77.00
64888;DHT22;51386;53.082;8.816;2023-02-20T01:49:45;9.30;77.10
64888;DHT22;51386;53.082;8.816;2023-02-20T01:52:19;9.40;77.20
64888;DHT22;51386;53.082;8.816;2023-02-20T01:54:53;9.40;77.20
64888;DHT22;51386;53.082;8.816;2023-02-20T01:57:26;9.40;77.20
64888;DHT22;51386;53.082;8.816;2023-02-20T02:00:00;9.40;77.20
64888;DHT22;51386;53.082;8.816;2023-02-20T02:02:32;9.40;77.20
64888;DHT22;51386;53.082;8.816;2023-02-20T02:05:02;9.40;77.00
64888;DHT22;51386;53.082;8.816;2023-02-20T02:07:29;9.40;77.10
64888;DHT22;51386;53.082;8.816;2023-02-20T02:10:00;9.50;77.10
64888;DHT22;51386;53.082;8.816;2023-02-20T02:12:30;9.50;77.10
64888;DHT22;51386;53.082;8.816;2023-02-20T02:14:58;9.50;77.00
64888;DHT22;51386;53.082;8.816;2023-02-20T02:17:43;9.50;77.00
64888;DHT22;51386;53.082;8.816;2023-02-20T02:30:54;9.60;76.70
64888;DHT22;51386;53.082;8.816;2023-02-20T02:34:06;9.60;76.70
64888;DHT22;51386;53.082;8.816;2023-02-20T02:37:14;9.60;76.70
64888;DHT22;51386;53.082;8.816;2023-02-20T02:39:49;9.70;76.60
64888;DHT22;51386;53.082;8.816;2023-02-20T02:42:28;9.70;76.60
64888;DHT22;51386;53.082;8.816;2023-02-20T02:45:08;9.70;76.60
64888;DHT22;51386;53.082;8.816;2023-02-20T02:47:45;9.70;76.50
64888;DHT22;51386;53.082;8.816;2023-02-20T02:50:20;9.70;76.60
64888;DHT22;51386;53.082;8.816;2023-02-20T02:52:54;9.70;76.50
64888;DHT22;51386;53.082;8.816;2023-02-20T02:55:25;9.70;76.40
64888;DHT22;51386;53.082;8.816;2023-02-20T02:57:53;9.80;76.40
64888;DHT22;51386;53.082;8.816;2023-02-20T03:00:23;9.80;76.30
64888;DHT22;51386;53.082;8.816;2023-02-20T03:02:56;9.80;76.20
64888;DHT22;51386;53.082;8.816;2023-02-20T03:05:33;9.80;76.20
64888;DHT22;51386;53.082;8.816;2023-02-20T03:08:22;9.80;76.30
64888;DHT22;51386;53.082;8.816;2023-02-20T03:11:00;9.80;76.50
64888;DHT22;51386;53.082;8.816;2023-02-20T03:13:38;9.70;76.40
64888;DHT22;51386;53.082;8.816;2023-02-20T03:16:31;9.80;76.50
64888;DHT22;51386;53.082;8.816;2023-02-20T03:19:05;9.80;76.50
64888;DHT22;51386;53.082;8.816;2023-02-20T03:21:42;9.80;76.50
64888;DHT22;51386;53.082;8.816;2023-02-20T03:24:16;9.80;76.50
64888;DHT22;51386;53.082;8.816;2023-02-20T03:26:45;9.80;76.60
64888;DHT22;51386;53.082;8.816;2023-02-20T03:29:17;9.80;76.50
64888;DHT22;51386;53.082;8.816;2023-02-20T03:31:53;9.90;76.40
64888;DHT22;51386;53.082;8.816;2023-02-20T03:34:43;9.80;76.50
64888;DHT22;51386;53.082;8.816;2023-02-20T03:37:32;9.90;76.60
64888;DHT22;51386;53.082;8.816;2023-02-20T03:40:23;9.80;77.40
64888;DHT22;51386;53.082;8.816;2023-02-20T03:43:12;9.80;76.70
64888;DHT22;51386;53.082;8.816;2023-02-20T03:45:51;9.90;76.80
64888;DHT22;51386;53.082;8.816;2023-02-20T03:48:26;9.90;76.60
64888;DHT22;51386;53.082;8.816;2023-02-20T03:50:58;9.90;76.80
64888;DHT22;51386;53.082;8.816;2023-02-20T03:53:25;9.90;76.90
64888;DHT22;51386;53.082;8.816;2023-02-20T03:55:58;9.90;77.00
64888;DHT22;51386;53.082;8.816;2023-02-20T03:58:30;9.90;77.00
64888;DHT22;51386;53.082;8.816;2023-02-20T04:01:03;9.90;77.10
64888;DHT22;51386;53.082;8.816;2023-02-20T04:03:37;9.80;77.10
64888;DHT22;51386;53.082;8.816;2023-02-20T04:06:10;9.90;77.20
64888;DHT22;51386;53.082;8.816;2023-02-20T04:08:44;9.90;77.20
64888;DHT22;51386;53.082;8.816;2023-02-20T04:11:18;9.90;77.30
64888;DHT22;51386;53.082;8.816;2023-02-20T04:13:51;9.90;77.30
64888;DHT22;51386;53.082;8.816;2023-02-20T04:16:20;9.80;77.60
64888;DHT22;51386;53.082;8.816;2023-02-20T04:18:49;9.80;77.70
64888;DHT22;51386;53.082;8.816;2023-02-20T04:21:20;9.80;77.70
64888;DHT22;51386;53.082;8.816;2023-02-20T04:24:01;9.90;77.80
64888;DHT22;51386;53.082;8.816;2023-02-20T04:26:34;9.80;77.80
64888;DHT22;51386;53.082;8.816;2023-02-20T04:29:02;9.90;77.90
64888;DHT22;51386;53.082;8.816;2023-02-20T04:31:30;9.90;78.00
64888;DHT22;51386;53.082;8.816;2023-02-20T04:33:57;9.90;77.90
64888;DHT22;51386;53.082;8.816;2023-02-20T04:36:25;9.90;78.00
64888;DHT22;51386;53.082;8.816;2023-02-20T04:38:52;9.90;78.20
64888;DHT22;51386;53.082;8.816;2023-02-20T04:41:19;9.90;78.30
64888;DHT22;51386;53.082;8.816;2023-02-20T04:43:48;10.00;77.10
64888;DHT22;51386;53.082;8.816;2023-02-20T04:46:15;10.00;77.80
64888;DHT22;51386;53.082;8.816;2023-02-20T04:48:43;10.00;77.10
64888;DHT22;51386;53.082;8.816;2023-02-20T04:51:10;10.00;77.10
64888;DHT22;51386;53.082;8.816;2023-02-20T04:53:37;10.00;77.10
64888;DHT22;51386;53.082;8.816;2023-02-20T04:56:04;10.00;77.20
64888;DHT22;51386;53.082;8.816;2023-02-20T04:58:32;10.00;77.20
64888;DHT22;51386;53.082;8.816;2023-02-20T05:01:03;10.10;77.30
64888;DHT22;51386;53.082;8.816;2023-02-20T05:03:30;10.10;77.20
64888;DHT22;51386;53.082;8.816;2023-02-20T05:05:57;10.10;77.20
64888;DHT22;51386;53.082;8.816;2023-02-20T05:08:24;10.10;77.30
64888;DHT22;51386;53.082;8.816;2023-02-20T05:10:51;10.10;77.20
64888;DHT22;51386;53.082;8.816;2023-02-20T05:13:18;10.10;77.20
64888;DHT22;51386;53.082;8.816;2023-02-20T05:15:44;10.10;77.30
64888;DHT22;51386;53.082;8.816;2023-02-20T05:18:13;10.10;77.60
64888;DHT22;51386;53.082;8.816;2023-02-20T05:20:40;10.00;77.60
64888;DHT22;51386;53.082;8.816;2023-02-20T05:23:25;10.10;77.60
64888;DHT22;51386;53.082;8.816;2023-02-20T05:25:52;10.10;77.70
64888;DHT22;51386;53.082;8.816;2023-02-20T05:28:20;10.10;77.70
64888;DHT22;51386;53.082;8.816;2023-02-20T05:30:47;10.10;77.90
64888;DHT22;51386;53.082;8.816;2023-02-20T05:33:15;10.10;77.90
64888;DHT22;51386;53.082;8.816;2023-02-20T05:35:42;10.00;77.90
64888;DHT22;51386;53.082;8.816;2023-02-20T05:38:14;10.00;78.00
64888;DHT22;51386;53.082;8.816;2023-02-20T05:40:42;10.00;78.00
64888;DHT22;51386;53.082;8.816;2023-02-20T05:43:09;10.00;78.10
64888;DHT22;51386;53.082;8.816;2023-02-20T05:45:36;10.00;78.30
64888;DHT22;51386;53.082;8.816;2023-02-20T05:48:03;10.00;78.50
64888;DHT22;51386;53.082;8.816;2023-02-20T05:50:32;10.00;78.70
64888;DHT22;51386;53.082;8.816;2023-02-20T05:52:59;9.90;79.80
64888;DHT22;51386;53.082;8.816;2023-02-20T05:55:26;10.00;78.70
64888;DHT22;51386;53.082;8.816;2023-02-20T05:57:53;10.00;78.70
64888;DHT22;51386;53.082;8.816;2023-02-20T06:00:20;10.00;78.70
64888;DHT22;51386;53.082;8.816;2023-02-20T06:02:47;9.90;79.80
64888;DHT22;51386;53.082;8.816;2023-02-20T06:05:14;10.00;78.70
64888;DHT22;51386;53.082;8.816;2023-02-20T06:07:43;9.90;79.90
64888;DHT22;51386;53.082;8.816;2023-02-20T06:10:11;9.90;79.90
64888;DHT22;51386;53.082;8.816;2023-02-20T06:12:38;9.90;80.30
64888;DHT22;51386;53.082;8.816;2023-02-20T06:15:05;9.90;80.40
64888;DHT22;51386;53.082;8.816;2023-02-20T06:17:32;9.80;80.60
64888;DHT22;51386;53.082;8.816;2023-02-20T06:19:59;9.80;80.50
64888;DHT22;51386;53.082;8.816;2023-02-20T06:22:26;9.80;80.60
64888;DHT22;51386;53.082;8.816;2023-02-20T06:24:54;9.80;80.60
64888;DHT22;51386;53.082;8.816;2023-02-20T06:27:21;9.80;80.60
64888;DHT22;51386;53.082;8.816;2023-02-20T06:29:48;9.80;80.60
64888;DHT22;51386;53.082;8.816;2023-02-20T06:32:16;9.80;80.60
64888;DHT22;51386;53.082;8.816;2023-02-20T06:34:43;9.80;80.70
64888;DHT22;51386;53.082;8.816;2023-02-20T06:37:10;9.90;80.70
64888;DHT22;51386;53.082;8.816;2023-02-20T06:39:38;9.90;80.50
64888;DHT22;51386;53.082;8.816;2023-02-20T06:42:09;9.90;80.50
64888;DHT22;51386;53.082;8.816;2023-02-20T06:44:36;9.90;80.60
64888;DHT22;51386;53.082;8.816;2023-02-20T06:47:03;9.90;80.40
64888;DHT22;51386;53.082;8.816;2023-02-20T06:49:34;9.90;80.20
64888;DHT22;51386;53.082;8.816;2023-02-20T06:52:03;9.90;80.20
64888;DHT22;51386;53.082;8.816;2023-02-20T06:54:31;10.00;79.20
64888;DHT22;51386;53.082;8.816;2023-02-20T06:56:59;9.90;80.20
64888;DHT22;51386;53.082;8.816;2023-02-20T06:59:28;10.00;78.90
64888;DHT22;51386;53.082;8.816;2023-02-20T07:01:55;10.00;78.80
64888;DHT22;51386;53.082;8.816;2023-02-20T07:04:24;10.00;79.00
64888;DHT22;51386;53.082;8.816;2023-02-20T07:06:54;10.00;79.30
64888;DHT22;51386;53.082;8.816;2023-02-20T07:09:22;10.10;79.30
64888;DHT22;51386;53.082;8.816;2023-02-20T07:11:51;10.00;79.40
64888;DHT22;51386;53.082;8.816;2023-02-20T07:14:19;10.10;79.50
64888;DHT22;51386;53.082;8.816;2023-02-20T07:16:47;10.10;79.40
64888;DHT22;51386;53.082;8.816;2023-02-20T07:19:14;10.10;79.50
64888;DHT22;51386;53.082;8.816;2023-02-20T07:21:41;10.10;79.60
64888;DHT22;51386;53.082;8.816;2023-02-20T07:24:08;10.10;79.60
64888;DHT22;51386;53.082;8.816;2023-02-20T07:26:39;10.10;79.90
64888;DHT22;51386;53.082;8.816;2023-02-20T07:29:11;10.20;80.00
64888;DHT22;51386;53.082;8.816;2023-02-20T07:31:39;10.20;80.10
64888;DHT22;51386;53.082;8.816;2023-02-20T07:34:07;10.20;80.10
64888;DHT22;51386;53.082;8.816;2023-02-20T07:36:34;10.20;80.20
64888;DHT22;51386;53.082;8.816;2023-02-20T07:39:03;10.20;80.20
64888;DHT22;51386;53.082;8.816;2023-02-20T07:41:33;10.20;80.20
64888;DHT22;51386;53.082;8.816;2023-02-20T07:44:01;10.30;80.40
64888;DHT22;51386;53.082;8.816;2023-02-20T07:46:29;10.30;80.50
64888;DHT22;51386;53.082;8.816;2023-02-20T07:49:00;10.20;80.50
64888;DHT22;51386;53.082;8.816;2023-02-20T07:51:29;10.30;80.70
64888;DHT22;51386;53.082;8.816;2023-02-20T07:53:57;10.30;80.90
64888;DHT22;51386;53.082;8.816;2023-02-20T07:56:24;10.30;81.00
64888;DHT22;51386;53.082;8.816;2023-02-20T07:58:52;10.30;81.20
64888;DHT22;51386;53.082;8.816;2023-02-20T08:01:20;10.30;81.20
64888;DHT22;51386;53.082;8.816;2023-02-20T08:03:50;10.40;81.20
64888;DHT22;51386;53.082;8.816;2023-02-20T08:06:18;10.30;81.20
64888;DHT22;51386;53.082;8.816;2023-02-20T08:08:48;10.30;81.60
64888;DHT22;51386;53.082;8.816;2023-02-20T08:11:17;10.30;81.60
64888;DHT22;51386;53.082;8.816;2023-02-20T08:13:44;10.40;81.70
64888;DHT22;51386;53.082;8.816;2023-02-20T08:16:11;10.40;82.00
64888;DHT22;51386;53.082;8.816;2023-02-20T08:18:39;10.40;81.90
64888;DHT22;51386;53.082;8.816;2023-02-20T08:21:06;10.40;82.00
64888;DHT22;51386;53.082;8.816;2023-02-20T08:23:33;10.50;82.30
64888;DHT22;51386;53.082;8.816;2023-02-20T08:26:04;10.50;82.20
64888;DHT22;51386;53.082;8.816;2023-02-20T08:28:32;10.60;82.40
64888;DHT22;51386;53.082;8.816;2023-02-20T08:30:59;10.60;82.20
64888;DHT22;51386;53.082;8.816;2023-02-20T08:33:26;10.60;82.90
64888;DHT22;51386;53.082;8.816;2023-02-20T08:35:54;10.70;82.10
64888;DHT22;51386;53.082;8.816;2023-02-20T08:38:25;10.70;82.10
64888;DHT22;51386;53.082;8.816;2023-02-20T08:40:54;10.70;81.90
64888;DHT22;51386;53.082;8.816;2023-02-20T08:43:23;10.70;81.90
64888;DHT22;51386;53.082;8.816;2023-02-20T08:45:56;10.70;82.00
64888;DHT22;51386;53.082;8.816;2023-02-20T08:48:24;10.70;81.90
64888;DHT22;51386;53.082;8.816;2023-02-20T08:50:51;10.70;82.10
64888;DHT22;51386;53.082;8.816;2023-02-20T08:53:19;10.70;82.00
64888;DHT22;51386;53.082;8.816;2023-02-20T08:55:46;10.80;82.00
64888;DHT22;51386;53.082;8.816;2023-02-20T08:58:15;10.80;81.90
64888;DHT22;51386;53.082;8.816;2023-02-20T09:00:45;10.80;81.90
64888;DHT22;51386;53.082;8.816;2023-02-20T09:03:12;10.80;82.00
64888;DHT22;51386;53.082;8.816;2023-02-20T09:05:40;10.90;82.00
64888;DHT22;51386;53.082;8.816;2023-02-20T09:08:08;10.90;82.10
64888;DHT22;51386;53.082;8.816;2023-02-20T09:10:36;10.80;82.20
64888;DHT22;51386;53.082;8.816;2023-02-20T09:13:03;10.90;82.30
64888;DHT22;51386;53.082;8.816;2023-02-20T09:15:30;10.90;82.10
64888;DHT22;51386;53.082;8.816;2023-02-20T09:18:06;10.90;82.20
64888;DHT22;51386;53.082;8.816;2023-02-20T09:20:36;11.00;82.30
64888;DHT22;51386;53.082;8.816;2023-02-20T09:23:04;11.00;82.30
64888;DHT22;51386;53.082;8.816;2023-02-20T09:25:32;11.00;82.20
64888;DHT22;51386;53.082;8.816;2023-02-20T09:27:59;11.00;82.10
64888;DHT22;51386;53.082;8.816;2023-02-20T09:30:27;11.10;82.20
64888;DHT22;51386;53.082;8.816;2023-02-20T09:32:54;11.10;82.40
64888;DHT22;51386;53.082;8.816;2023-02-20T09:35:25;11.10;82.20
64888;DHT22;51386;53.082;8.816;2023-02-20T09:37:56;11.10;82.20
64888;DHT22;51386;53.082;8.816;2023-02-20T09:40:25;11.10;82.20
64888;DHT22;51386;53.082;8.816;2023-02-20T09:43:06;11.10;82.40
64888;DHT22;51386;53.082;8.816;2023-02-20T09:45:45;11.20;82.50
64888;DHT22;51386;53.082;8.816;2023-02-20T09:48:30;11.20;82.50
64888;DHT22;51386;53.082;8.816;2023-02-20T09:51:13;11.20;83.20
64888;DHT22;51386;53.082;8.816;2023-02-20T09:53:51;11.20;82.50
64888;DHT22;51386;53.082;8.816;2023-02-20T09:56:27;11.30;82.60
64888;DHT22;51386;53.082;8.816;2023-02-20T09:58:59;11.30;82.80
64888;DHT22;51386;53.082;8.816;2023-02-20T10:01:33;11.30;82.90
64888;DHT22;51386;53.082;8.816;2023-02-20T10:04:07;11.30;83.00
64888;DHT22;51386;53.082;8.816;2023-02-20T10:06:40;11.30;83.20
64888;DHT22;51386;53.082;8.816;2023-02-20T10:09:11;11.30;83.40
64888;DHT22;51386;53.082;8.816;2023-02-20T10:11:59;11.40;83.30
64888;DHT22;51386;53.082;8.816;2023-02-20T10:14:50;11.40;83.30
64888;DHT22;51386;53.082;8.816;2023-02-20T10:17:39;11.50;83.30
64888;DHT22;51386;53.082;8.816;2023-02-20T10:20:19;11.50;83.00
64888;DHT22;51386;53.082;8.816;2023-02-20T10:23:05;11.50;83.20
64888;DHT22;51386;53.082;8.816;2023-02-20T10:25:41;11.60;83.20
64888;DHT22;51386;53.082;8.816;2023-02-20T10:28:14;11.60;83.30
64888;DHT22;51386;53.082;8.816;2023-02-20T10:30:44;11.60;83.30
64888;DHT22;51386;53.082;8.816;2023-02-20T10:33:22;11.60;83.10
64888;DHT22;51386;53.082;8.816;2023-02-20T10:35:55;11.60;83.30
64888;DHT22;51386;53.082;8.816;2023-02-20T10:38:30;11.60;83.50
64888;DHT22;51386;53.082;8.816;2023-02-20T10:41:06;11.60;83.30
64888;DHT22;51386;53.082;8.816;2023-02-20T10:43:45;11.70;83.20
64888;DHT22;51386;53.082;8.816;2023-02-20T10:46:19;11.70;83.20
64888;DHT22;51386;53.082;8.816;2023-02-20T10:49:12;11.70;83.10
64888;DHT22;51386;53.082;8.816;2023-02-20T10:51:47;11.80;83.30
64888;DHT22;51386;53.082;8.816;2023-02-20T10:54:24;11.70;83.40
64888;DHT22;51386;53.082;8.816;2023-02-20T10:57:01;11.80;83.50
64888;DHT22;51386;53.082;8.816;2023-02-20T10:59:38;11.80;83.30
64888;DHT22;51386;53.082;8.816;2023-02-20T11:02:15;11.80;83.30
64888;DHT22;51386;53.082;8.816;2023-02-20T11:04:50;11.80;83.70
64888;DHT22;51386;53.082;8.816;2023-02-20T11:07:21;11.80;83.60
64888;DHT22;51386;53.082;8.816;2023-02-20T11:09:49;11.90;83.70
64888;DHT22;51386;53.082;8.816;2023-02-20T11:12:23;11.90;83.60
64888;DHT22;51386;53.082;8.816;2023-02-20T11:14:55;11.90;83.70
64888;DHT22;51386;53.082;8.816;2023-02-20T11:17:26;12.00;83.70
64888;DHT22;51386;53.082;8.816;2023-02-20T11:19:56;12.00;83.60
64888;DHT22;51386;53.082;8.816;2023-02-20T11:22:40;12.00;83.70
64888;DHT22;51386;53.082;8.816;2023-02-20T11:25:19;12.00;83.90
64888;DHT22;51386;53.082;8.816;2023-02-20T11:27:49;12.00;83.90
64888;DHT22;51386;53.082;8.816;2023-02-20T11:30:27;12.00;84.00
64888;DHT22;51386;53.082;8.816;2023-02-20T11:33:03;12.00;84.40
64888;DHT22;51386;53.082;8.816;2023-02-20T11:35:36;11.90;84.20
64888;DHT22;51386;53.082;8.816;2023-02-20T11:38:29;12.00;84.50
64888;DHT22;51386;53.082;8.816;2023-02-20T11:41:06;12.00;84.60
64888;DHT22;51386;53.082;8.816;2023-02-20T11:43:40;12.00;84.40
64888;DHT22;51386;53.082;8.816;2023-02-20T11:46:26;12.00;84.20
64888;DHT22;51386;53.082;8.816;2023-02-20T11:48:59;12.00;84.20
64888;DHT22;51386;53.082;8.816;2023-02-20T11:51:33;12.00;84.40
64888;DHT22;51386;53.082;8.816;2023-02-20T11:54:12;12.00;84.30
64888;DHT22;51386;53.082;8.816;2023-02-20T11:57:00;12.00;84.30
64888;DHT22;51386;53.082;8.816;2023-02-20T11:59:35;12.10;84.40
64888;DHT22;51386;53.082;8.816;2023-02-20T12:02:12;12.10;84.30
64888;DHT22;51386;53.082;8.816;2023-02-20T12:05:07;12.10;84.40
64888;DHT22;51386;53.082;8.816;2023-02-20T12:07:38;12.10;84.50
64888;DHT22;51386;53.082;8.816;2023-02-20T12:10:20;12.10;84.40
64888;DHT22;51386;53.082;8.816;2023-02-20T12:12:55;12.10;84.40
64888;DHT22;51386;53.082;8.816;2023-02-20T12:15:24;12.10;84.40
64888;DHT22;51386;53.082;8.816;2023-02-20T12:21:10;12.10;84.00
64888;DHT22;51386;53.082;8.816;2023-02-20T12:24:00;12.10;84.10
64888;DHT22;51386;53.082;8.816;2023-02-20T12:26:49;12.10;84.00
64888;DHT22;51386;53.082;8.816;2023-02-20T12:29:40;12.10;83.70
64888;DHT22;51386;53.082;8.816;2023-02-20T12:32:23;12.10;83.50
64888;DHT22;51386;53.082;8.816;2023-02-20T12:35:16;12.10;83.70
64888;DHT22;51386;53.082;8.816;2023-02-20T12:37:59;12.10;83.60
64888;DHT22;51386;53.082;8.816;2023-02-20T12:40:53;12.10;83.30
64888;DHT22;51386;53.082;8.816;2023-02-20T12:43:46;12.20;83.10
64888;DHT22;51386;53.082;8.816;2023-02-20T12:46:46;12.20;83.10
64888;DHT22;51386;53.082;8.816;2023-02-20T12:49:46;12.20;83.00
64888;DHT22;51386;53.082;8.816;2023-02-20T12:52:39;12.20;82.90
64888;DHT22;51386;53.082;8.816;2023-02-20T12:55:23;12.20;82.70
64888;DHT22;51386;53.082;8.816;2023-02-20T12:58:11;12.20;82.80
64888;DHT22;51386;53.082;8.816;2023-02-20T13:00:50;12.20;82.60
64888;DHT22;51386;53.082;8.816;2023-02-20T13:03:38;12.30;82.60
64888;DHT22;51386;53.082;8.816;2023-02-20T13:06:10;12.30;82.60
64888;DHT22;51386;53.082;8.816;2023-02-20T13:08:54;12.30;82.50
64888;DHT22;51386;53.082;8.816;2023-02-20T13:11:33;12.30;82.60
64888;DHT22;51386;53.082;8.816;2023-02-20T13:14:20;12.30;82.60
64888;DHT22;51386;53.082;8.816;2023-02-20T13:17:06;12.30;82.70
64888;DHT22;51386;53.082;8.816;2023-02-20T13:19:55;12.30;82.70
64888;DHT22;51386;53.082;8.816;2023-02-20T13:22:26;12.30;82.80
64888;DHT22;51386;53.082;8.816;2023-02-20T13:24:54;12.30;83.20
64888;DHT22;51386;53.082;8.816;2023-02-20T13:28:00;12.30;83.40
64888;DHT22;51386;53.082;8.816;2023-02-20T13:30:28;12.30;83.30
64888;DHT22;51386;53.082;8.816;2023-02-20T13:33:10;12.30;83.60
64888;DHT22;51386;53.082;8.816;2023-02-20T13:35:49;12.40;84.50
64888;DHT22;51386;53.082;8.816;2023-02-20T13:38:19;12.40;83.70
64888;DHT22;51386;53.082;8.816;2023-02-20T13:41:03;12.40;83.90
64888;DHT22;51386;53.082;8.816;2023-02-20T13:43:33;12.40;84.00
64888;DHT22;51386;53.082;8.816;2023-02-20T13:46:17;12.40;84.30
64888;DHT22;51386;53.082;8.816;2023-02-20T13:48:50;12.40;84.50
64888;DHT22;51386;53.082;8.816;2023-02-20T13:51:34;12.40;84.40
64888;DHT22;51386;53.082;8.816;2023-02-20T13:54:24;12.40;84.50
64888;DHT22;51386;53.082;8.816;2023-02-20T13:57:00;12.40;85.00
64888;DHT22;51386;53.082;8.816;2023-02-20T13:59:42;12.40;85.00
64888;DHT22;51386;53.082;8.816;2023-02-20T14:02:17;12.40;85.00
64888;DHT22;51386;53.082;8.816;2023-02-20T14:04:54;12.40;85.40
64888;DHT22;51386;53.082;8.816;2023-02-20T14:07:33;12.40;85.20
64888;DHT22;51386;53.082;8.816;2023-02-20T14:10:06;12.40;85.40
64888;DHT22;51386;53.082;8.816;2023-02-20T14:12:40;12.40;85.40
64888;DHT22;51386;53.082;8.816;2023-02-20T14:15:07;12.30;85.50
64888;DHT22;51386;53.082;8.816;2023-02-20T14:17:35;12.30;85.50
64888;DHT22;51386;53.082;8.816;2023-02-20T14:20:14;12.30;85.40
64888;DHT22;51386;53.082;8.816;2023-02-20T14:22:47;12.30;85.40
64888;DHT22;51386;53.082;8.816;2023-02-20T14:25:25;12.30;85.40
64888;DHT22;51386;53.082;8.816;2023-02-20T14:28:09;12.30;85.40
64888;DHT22;51386;53.082;8.816;2023-02-20T14:30:38;12.40;85.40
64888;DHT22;51386;53.082;8.816;2023-02-20T14:33:20;12.40;85.10
64888;DHT22;51386;53.082;8.816;2023-02-20T14:35:59;12.40;85.00
64888;DHT22;51386;53.082;8.816;2023-02-20T14:38:59;12.50;84.80
64888;DHT22;51386;53.082;8.816;2023-02-20T14:41:35;12.50;84.60
64888;DHT22;51386;53.082;8.816;2023-02-20T14:44:05;12.60;84.40
64888;DHT22;51386;53.082;8.816;2023-02-20T14:46:43;12.60;84.30
64888;DHT22;51386;53.082;8.816;2023-02-20T14:49:13;12.60;84.20
64888;DHT22;51386;53.082;8.816;2023-02-20T14:51:41;12.60;84.20
64888;DHT22;51386;53.082;8.816;2023-02-20T14:54:17;12.60;84.10
64888;DHT22;51386;53.082;8.816;2023-02-20T14:56:46;12.70;84.00
64888;DHT22;51386;53.082;8.816;2023-02-20T14:59:21;12.70;83.80
64888;DHT22;51386;53.082;8.816;2023-02-20T15:01:50;12.70;83.80
64888;DHT22;51386;53.082;8.816;2023-02-20T15:04:19;12.70;83.70
64888;DHT22;51386;53.082;8.816;2023-02-20T15:06:50;12.70;83.70
64888;DHT22;51386;53.082;8.816;2023-02-20T15:09:21;12.70;83.80
64888;DHT22;51386;53.082;8.816;2023-02-20T15:11:51;12.70;83.60
64888;DHT22;51386;53.082;8.816;2023-02-20T15:14:25;12.70;83.50
64888;DHT22;51386;53.082;8.816;2023-02-20T15:17:05;12.70;83.60
64888;DHT22;51386;53.082;8.816;2023-02-20T15:19:37;12.70;83.80
64888;DHT22;51386;53.082;8.816;2023-02-20T15:22:28;12.60;83.70
64888;DHT22;51386;53.082;8.816;2023-02-20T15:25:27;12.70;84.00
64888;DHT22;51386;53.082;8.816;2023-02-20T15:28:06;12.60;83.90
64888;DHT22;51386;53.082;8.816;2023-02-20T15:31:05;12.70;84.00
64888;DHT22;51386;53.082;8.816;2023-02-20T15:33:49;12.70;83.90
64888;DHT22;51386;53.082;8.816;2023-02-20T15:36:20;12.70;83.80
64888;DHT22;51386;53.082;8.816;2023-02-20T15:38:51;12.70;83.80
64888;DHT22;51386;53.082;8.816;2023-02-20T15:41:22;12.70;83.90
64888;DHT22;51386;53.082;8.816;2023-02-20T15:43:50;12.70;83.90
64888;DHT22;51386;53.082;8.816;2023-02-20T15:46:19;12.70;83.80
64888;DHT22;51386;53.082;8.816;2023-02-20T15:48:46;12.70;83.90
64888;DHT22;51386;53.082;8.816;2023-02-20T15:51:17;12.80;83.90
64888;DHT22;51386;53.082;8.816;2023-02-20T15:53:51;12.70;83.40
64888;DHT22;51386;53.082;8.816;2023-02-20T15:56:19;12.80;84.20
64888;DHT22;51386;53.082;8.816;2023-02-20T15:58:48;12.80;83.40
64888;DHT22;51386;53.082;8.816;2023-02-20T16:01:16;12.80;83.50
64888;DHT22;51386;53.082;8.816;2023-02-20T16:03:43;12.80;83.40
64888;DHT22;51386;53.082;8.816;2023-02-20T16:06:19;12.80;83.60
64888;DHT22;51386;53.082;8.816;2023-02-20T16:08:47;12.80;83.40
64888;DHT22;51386;53.082;8.816;2023-02-20T16:11:16;12.80;83.10
64888;DHT22;51386;53.082;8.816;2023-02-20T16:13:46;12.80;83.10
64888;DHT22;51386;53.082;8.816;2023-02-20T16:16:20;12.80;83.20
64888;DHT22;51386;53.082;8.816;2023-02-20T16:18:51;12.80;83.50
64888;DHT22;51386;53.082;8.816;2023-02-20T16:21:22;12.80;83.40
64888;DHT22;51386;53.082;8.816;2023-02-20T16:23:50;12.80;83.30
64888;DHT22;51386;53.082;8.816;2023-02-20T16:26:20;12.80;83.40